createdAt,value
2018-08-25T00:01:15.567Z,16.17
2018-08-25T00:03:43.666Z,16.08
2018-08-25T00:06:11.682Z,16.00
2018-08-25T00:08:39.713Z,15.92
2018-08-25T00:11:08.521Z,15.84
2018-08-25T00:13:36.649Z,15.84
2018-08-25T00:16:04.728Z,15.80
2018-08-25T00:18:32.818Z,15.79
2018-08-25T00:21:00.992Z,15.76
2018-08-25T00:23:29.094Z,15.74
2018-08-25T00:25:57.139Z,15.71
2018-08-25T00:28:25.160Z,15.71
2018-08-25T00:30:58.738Z,15.73
2018-08-25T00:33:26.966Z,15.65
2018-08-25T00:35:55.078Z,15.75
2018-08-25T00:38:23.190Z,15.68
2018-08-25T00:40:51.246Z,15.58
2018-08-25T00:43:19.341Z,15.54
2018-08-25T00:45:47.403Z,15.42
2018-08-25T00:48:15.508Z,15.43
2018-08-25T00:50:43.636Z,15.44
2018-08-25T00:53:11.776Z,15.38
2018-08-25T00:55:39.859Z,15.37
2018-08-25T00:58:08.247Z,15.38
2018-08-25T01:00:36.229Z,15.42
2018-08-25T01:03:04.402Z,15.37
2018-08-25T01:05:32.462Z,15.34
2018-08-25T01:08:00.643Z,15.32
2018-08-25T01:10:28.985Z,15.28
2018-08-25T01:12:57.146Z,15.23
2018-08-25T01:15:25.583Z,15.22
2018-08-25T01:17:53.618Z,15.25
2018-08-25T01:20:21.700Z,15.20
2018-08-25T01:22:49.912Z,15.14
2018-08-25T01:25:18.045Z,15.12
2018-08-25T01:27:46.102Z,15.14
2018-08-25T01:30:14.382Z,15.16
2018-08-25T01:32:42.567Z,15.16
2018-08-25T01:35:10.769Z,15.10
2018-08-25T01:37:38.840Z,15.08
2018-08-25T01:40:06.930Z,15.00
2018-08-25T01:42:34.984Z,15.01
2018-08-25T01:45:03.155Z,15.05
2018-08-25T01:47:31.180Z,15.08
2018-08-25T01:49:59.381Z,15.03
2018-08-25T01:52:27.510Z,15.04
2018-08-25T01:54:55.586Z,14.96
2018-08-25T01:57:23.585Z,14.86
2018-08-25T01:59:51.613Z,14.81
2018-08-25T02:02:19.765Z,14.81
2018-08-25T02:04:48.340Z,14.82
2018-08-25T02:07:16.539Z,14.83
2018-08-25T02:09:44.685Z,14.87
2018-08-25T02:12:12.762Z,14.81
2018-08-25T02:14:40.810Z,14.79
2018-08-25T02:17:08.820Z,14.92
2018-08-25T02:19:36.926Z,14.92
2018-08-25T02:22:04.981Z,14.69
2018-08-25T02:24:33.201Z,14.64
2018-08-25T02:27:01.342Z,14.57
2018-08-25T02:29:29.364Z,14.56
2018-08-25T02:31:57.447Z,14.45
2018-08-25T02:34:25.476Z,14.44
2018-08-25T02:36:53.643Z,14.44
2018-08-25T02:39:21.635Z,14.49
2018-08-25T02:41:49.804Z,14.48
2018-08-25T02:44:17.982Z,14.39
2018-08-25T02:46:46.162Z,14.36
2018-08-25T02:49:14.266Z,14.32
2018-08-25T02:51:42.284Z,14.29
2018-08-25T02:54:10.269Z,14.18
2018-08-25T02:56:38.376Z,14.24
2018-08-25T02:59:06.508Z,14.12
2018-08-25T03:01:34.758Z,14.14
2018-08-25T03:04:03.012Z,14.10
2018-08-25T03:06:31.036Z,14.02
2018-08-25T03:08:59.160Z,13.99
2018-08-25T03:11:27.408Z,14.00
2018-08-25T03:13:55.542Z,14.09
2018-08-25T03:16:23.679Z,14.17
2018-08-25T03:18:51.793Z,14.10
2018-08-25T03:21:20.040Z,14.09
2018-08-25T03:23:48.147Z,14.14
2018-08-25T03:26:16.177Z,14.12
2018-08-25T03:28:44.188Z,14.16
2018-08-25T03:31:12.396Z,14.18
2018-08-25T03:33:40.701Z,14.24
2018-08-25T03:36:08.790Z,14.23
2018-08-25T03:38:36.824Z,14.21
2018-08-25T03:41:05.326Z,14.16
2018-08-25T03:43:33.712Z,14.12
2018-08-25T03:46:01.734Z,14.14
2018-08-25T03:48:29.886Z,14.12
2018-08-25T03:50:58.003Z,14.19
2018-08-25T03:53:26.089Z,14.30
2018-08-25T03:55:54.278Z,14.32
2018-08-25T03:58:22.364Z,14.35
2018-08-25T04:00:50.496Z,14.48
2018-08-25T04:03:18.713Z,14.53
2018-08-25T04:05:46.779Z,14.73
2018-08-25T04:08:14.948Z,15.06
2018-08-25T04:10:43.234Z,15.56
2018-08-25T04:13:11.373Z,16.14
2018-08-25T04:15:39.410Z,16.63
2018-08-25T04:18:07.472Z,16.92
2018-08-25T04:20:35.530Z,16.43
2018-08-25T04:23:03.615Z,16.20
2018-08-25T04:25:31.788Z,15.99
2018-08-25T04:27:59.949Z,15.94
2018-08-25T04:30:28.081Z,15.92
2018-08-25T04:32:56.225Z,15.83
2018-08-25T04:35:24.288Z,15.86
2018-08-25T04:37:52.382Z,15.93
2018-08-25T04:40:20.546Z,16.08
2018-08-25T04:42:48.896Z,16.34
2018-08-25T04:45:16.992Z,16.59
2018-08-25T04:47:45.261Z,16.60
2018-08-25T04:50:13.298Z,16.54
2018-08-25T04:52:41.486Z,16.35
2018-08-25T04:55:09.558Z,16.14
2018-08-25T04:57:37.959Z,16.07
2018-08-25T05:00:06.670Z,16.20
2018-08-25T05:02:34.736Z,16.20
2018-08-25T05:05:02.904Z,16.27
2018-08-25T05:07:31.085Z,16.42
2018-08-25T05:09:59.416Z,16.46
2018-08-25T05:12:27.769Z,16.28
2018-08-25T05:14:56.108Z,16.09
2018-08-25T05:17:24.655Z,16.00
2018-08-25T05:19:53.102Z,16.19
2018-08-25T05:22:21.282Z,16.22
2018-08-25T05:24:49.518Z,16.26
2018-08-25T05:27:17.747Z,16.37
2018-08-25T05:29:46.077Z,16.40
2018-08-25T05:32:14.352Z,16.55
2018-08-25T05:34:42.437Z,16.74
2018-08-25T05:37:10.571Z,16.85
2018-08-25T05:39:38.868Z,17.02
2018-08-25T05:42:07.472Z,17.30
2018-08-25T05:44:42.217Z,17.38
2018-08-25T05:47:18.322Z,17.68
2018-08-25T05:49:51.018Z,17.95
2018-08-25T05:52:24.253Z,18.13
2018-08-25T05:54:55.518Z,18.13
2018-08-25T05:57:29.383Z,18.36
2018-08-25T06:00:02.348Z,18.16
2018-08-25T06:02:36.108Z,17.91
2018-08-25T06:05:09.238Z,18.05
2018-08-25T06:07:42.322Z,18.52
2018-08-25T06:10:13.870Z,19.49
2018-08-25T06:12:46.858Z,20.38
2018-08-25T06:15:18.390Z,19.68
2018-08-25T06:17:49.420Z,19.41
2018-08-25T06:20:21.827Z,19.15
2018-08-25T06:22:50.657Z,19.32
2018-08-25T06:25:18.745Z,19.59
2018-08-25T06:27:46.839Z,19.40
2018-08-25T06:30:15.058Z,19.10
2018-08-25T06:32:43.108Z,19.56
2018-08-25T06:35:11.193Z,20.09
2018-08-25T06:37:39.343Z,20.32
2018-08-25T06:40:07.644Z,20.57
2018-08-25T06:42:35.955Z,20.54
2018-08-25T06:45:04.312Z,20.76
2018-08-25T06:47:32.665Z,20.76
2018-08-25T06:50:00.906Z,21.22
2018-08-25T06:52:29.256Z,21.40
2018-08-25T06:54:57.605Z,21.96
2018-08-25T06:57:25.936Z,21.90
2018-08-25T06:59:54.212Z,21.87
2018-08-25T07:02:22.617Z,22.09
2018-08-25T07:04:50.979Z,21.96
2018-08-25T07:07:19.285Z,22.31
2018-08-25T07:09:47.573Z,22.60
2018-08-25T07:12:16.058Z,22.62
2018-08-25T07:14:44.579Z,22.49
2018-08-25T07:17:12.889Z,22.73
2018-08-25T07:19:41.208Z,23.33
2018-08-25T07:22:09.945Z,22.93
2018-08-25T07:24:38.363Z,23.70
2018-08-25T07:27:06.954Z,24.09
2018-08-25T07:29:38.646Z,24.43
2018-08-25T07:32:07.958Z,24.66
2018-08-25T07:34:36.808Z,24.84
2018-08-25T07:37:07.684Z,24.65
2018-08-25T07:39:36.267Z,24.71
2018-08-25T07:42:05.077Z,24.56
2018-08-25T07:44:33.928Z,24.81
2018-08-25T07:47:02.383Z,25.16
2018-08-25T07:49:30.989Z,25.40
2018-08-25T07:51:59.243Z,25.33
2018-08-25T07:54:27.768Z,25.63
2018-08-25T07:56:56.248Z,25.97
2018-08-25T07:59:24.928Z,26.41
2018-08-25T08:01:53.716Z,26.26
2018-08-25T08:04:23.046Z,26.39
2018-08-25T08:06:52.153Z,26.12
2018-08-25T08:09:23.020Z,26.27
2018-08-25T08:11:52.076Z,26.77
2018-08-25T08:14:20.551Z,26.86
2018-08-25T08:16:49.150Z,26.90
2018-08-25T08:19:17.836Z,27.18
2018-08-25T08:21:47.165Z,27.48
2018-08-25T08:24:16.869Z,27.51
2018-08-25T08:26:45.422Z,27.45
2018-08-25T08:29:13.997Z,27.58
2018-08-25T08:31:42.081Z,27.60
2018-08-25T08:34:10.239Z,28.24
2018-08-25T08:36:38.381Z,28.65
2018-08-25T08:39:08.827Z,28.38
2018-08-25T08:41:38.545Z,28.32
2018-08-25T08:44:06.895Z,28.54
2018-08-25T08:46:36.290Z,28.39
2018-08-25T08:49:06.026Z,28.41
2018-08-25T08:51:35.221Z,28.23
2018-08-25T08:54:03.356Z,27.88
2018-08-25T08:56:31.521Z,27.53
2018-08-25T08:59:00.120Z,27.26
2018-08-25T09:01:28.295Z,28.00
2018-08-25T09:03:56.743Z,28.27
2018-08-25T09:06:25.009Z,28.87
2018-08-25T09:08:53.217Z,28.81
2018-08-25T09:11:21.892Z,28.60
2018-08-25T09:13:50.384Z,28.51
2018-08-25T09:16:19.866Z,28.41
2018-08-25T09:18:48.307Z,28.49
2018-08-25T09:21:16.474Z,28.24
2018-08-25T09:23:45.095Z,28.81
2018-08-25T09:26:13.701Z,29.20
2018-08-25T09:28:42.101Z,29.58
2018-08-25T09:31:10.237Z,30.06
2018-08-25T09:33:38.564Z,30.34
2018-08-25T09:36:06.800Z,29.30
2018-08-25T09:38:35.154Z,29.77
2018-08-25T09:41:03.873Z,29.36
2018-08-25T09:43:32.143Z,29.71
2018-08-25T09:46:00.326Z,30.13
2018-08-25T09:48:28.566Z,30.12
2018-08-25T09:50:56.646Z,30.07
2018-08-25T09:53:24.891Z,30.29
2018-08-25T09:55:56.886Z,30.35
2018-08-25T09:58:25.209Z,30.80
2018-08-25T10:00:59.086Z,31.38
2018-08-25T10:03:27.391Z,31.49
2018-08-25T10:05:55.617Z,31.32
2018-08-25T10:08:23.776Z,30.73
2018-08-25T10:10:52.229Z,31.10
2018-08-25T10:13:20.496Z,31.01
2018-08-25T10:15:48.966Z,30.57
2018-08-25T10:18:17.503Z,30.08
2018-08-25T10:20:45.750Z,30.66
2018-08-25T10:23:14.392Z,30.45
2018-08-25T10:25:42.649Z,30.91
2018-08-25T10:28:11.268Z,30.13
2018-08-25T10:30:39.470Z,29.38
2018-08-25T10:33:08.128Z,29.13
2018-08-25T10:35:36.457Z,29.07
2018-08-25T10:38:04.993Z,29.38
2018-08-25T10:40:33.958Z,29.05
2018-08-25T10:43:02.202Z,28.76
2018-08-25T10:45:30.418Z,28.76
2018-08-25T10:47:58.625Z,29.58
2018-08-25T10:50:26.784Z,30.73
2018-08-25T10:52:55.060Z,30.71
2018-08-25T10:55:23.738Z,31.32
2018-08-25T10:57:52.562Z,31.82
2018-08-25T11:00:22.463Z,32.33
2018-08-25T11:02:50.959Z,32.54
2018-08-25T11:05:19.214Z,32.53
2018-08-25T11:07:47.406Z,32.52
2018-08-25T11:10:16.096Z,30.98
2018-08-25T11:12:44.713Z,30.45
2018-08-25T11:15:12.959Z,30.01
2018-08-25T11:17:41.282Z,30.86
2018-08-25T11:20:09.557Z,30.40
2018-08-25T11:22:37.752Z,29.95
2018-08-25T11:25:06.295Z,29.68
2018-08-25T11:27:34.675Z,30.08
2018-08-25T11:30:03.269Z,29.86
2018-08-25T11:32:32.106Z,29.80
2018-08-25T11:35:00.381Z,30.25
2018-08-25T11:37:29.043Z,30.07
2018-08-25T11:39:57.360Z,30.52
2018-08-25T11:42:26.430Z,30.63
2018-08-25T11:44:55.529Z,31.06
2018-08-25T11:47:24.140Z,31.05
2018-08-25T11:49:52.937Z,30.75
2018-08-25T11:52:21.869Z,30.91
2018-08-25T11:54:50.429Z,31.29
2018-08-25T11:57:19.270Z,31.13
2018-08-25T11:59:48.600Z,30.86
2018-08-25T12:02:17.497Z,30.75
2018-08-25T12:04:46.188Z,30.67
2018-08-25T12:07:14.693Z,31.12
2018-08-25T12:09:44.103Z,31.02
2018-08-25T12:12:13.189Z,31.22
2018-08-25T12:14:41.778Z,31.71
2018-08-25T12:17:10.284Z,32.00
2018-08-25T12:19:38.584Z,32.43
2018-08-25T12:22:07.075Z,32.13
2018-08-25T12:24:35.750Z,32.06
2018-08-25T12:27:04.973Z,32.40
2018-08-25T12:29:33.556Z,31.82
2018-08-25T12:32:02.086Z,32.30
2018-08-25T12:34:30.835Z,32.19
2018-08-25T12:36:59.348Z,32.36
2018-08-25T12:39:27.652Z,31.89
2018-08-25T12:41:55.951Z,31.57
2018-08-25T12:44:24.278Z,31.27
2018-08-25T12:46:52.899Z,31.02
2018-08-25T12:49:21.508Z,31.38
2018-08-25T12:51:50.308Z,31.82
2018-08-25T12:54:20.758Z,32.06
2018-08-25T12:56:49.615Z,32.03
2018-08-25T12:59:18.130Z,31.84
2018-08-25T13:01:46.545Z,31.05
2018-08-25T13:04:14.995Z,30.68
2018-08-25T13:06:43.666Z,30.51
2018-08-25T13:09:12.428Z,30.26
2018-08-25T13:11:40.737Z,29.92
2018-08-25T13:14:09.365Z,29.93
2018-08-25T13:16:37.856Z,29.71
2018-08-25T13:19:06.300Z,29.45
2018-08-25T13:21:34.631Z,28.91
2018-08-25T13:24:02.920Z,28.18
2018-08-25T13:26:31.319Z,28.00
2018-08-25T13:29:00.496Z,27.82
2018-08-25T13:31:29.020Z,27.78
2018-08-25T13:33:57.594Z,27.50
2018-08-25T13:36:25.960Z,26.98
2018-08-25T13:38:54.441Z,26.37
2018-08-25T13:41:22.868Z,26.15
2018-08-25T13:43:51.259Z,26.24
2018-08-25T13:46:19.573Z,26.08
2018-08-25T13:48:47.906Z,25.84
2018-08-25T13:51:16.308Z,25.57
2018-08-25T13:53:58.673Z,25.41
2018-08-25T13:56:28.682Z,25.15
2018-08-25T13:58:57.244Z,25.02
2018-08-25T14:01:25.414Z,24.90
2018-08-25T14:03:53.592Z,24.55
2018-08-25T14:06:21.895Z,23.97
2018-08-25T14:08:50.261Z,23.55
2018-08-25T14:11:18.794Z,23.39
2018-08-25T14:13:47.068Z,22.81
2018-08-25T14:16:15.947Z,22.62
2018-08-25T14:18:44.166Z,22.10
2018-08-25T14:21:12.563Z,22.01
2018-08-25T14:23:41.001Z,21.68
2018-08-25T14:26:09.580Z,21.50
2018-08-25T14:28:37.866Z,21.21
2018-08-25T14:31:06.348Z,21.23
2018-08-25T14:33:34.593Z,21.44
2018-08-25T14:36:02.691Z,21.47
2018-08-25T14:38:30.836Z,21.52
2018-08-25T14:40:58.951Z,21.55
2018-08-25T14:43:27.043Z,21.23
2018-08-25T14:45:55.107Z,20.95
2018-08-25T14:48:23.235Z,20.81
2018-08-25T14:50:51.600Z,20.75
2018-08-25T14:53:19.811Z,20.74
2018-08-25T14:55:48.038Z,20.53
2018-08-25T14:58:16.214Z,20.41
2018-08-25T15:00:44.543Z,20.23
2018-08-25T15:03:12.633Z,20.17
2018-08-25T15:05:41.375Z,20.17
2018-08-25T15:08:09.906Z,20.15
2018-08-25T15:10:37.948Z,20.23
2018-08-25T15:13:06.181Z,20.26
2018-08-25T15:15:34.512Z,20.11
2018-08-25T15:18:02.696Z,20.14
2018-08-25T15:20:30.895Z,20.26
2018-08-25T15:22:59.113Z,20.41
2018-08-25T15:25:27.255Z,20.39
2018-08-25T15:27:55.512Z,20.43
2018-08-25T15:30:23.812Z,20.58
2018-08-25T15:32:52.192Z,20.71
2018-08-25T15:35:20.487Z,20.84
2018-08-25T15:37:48.850Z,21.01
2018-08-25T15:40:17.030Z,21.14
2018-08-25T15:42:45.153Z,21.36
2018-08-25T15:45:13.397Z,21.32
2018-08-25T15:47:41.650Z,21.45
2018-08-25T15:50:09.838Z,21.37
2018-08-25T15:52:38.286Z,21.37
2018-08-25T15:55:06.993Z,21.41
2018-08-25T15:57:35.543Z,21.34
2018-08-25T16:00:03.797Z,21.33
2018-08-25T16:02:31.957Z,21.30
2018-08-25T16:05:00.115Z,21.37
2018-08-25T16:07:28.579Z,21.45
2018-08-25T16:09:56.906Z,21.58
2018-08-25T16:12:25.678Z,21.60
2018-08-25T16:14:54.141Z,21.66
2018-08-25T16:17:22.675Z,21.55
2018-08-25T16:19:51.228Z,21.55
2018-08-25T16:22:19.443Z,21.43
2018-08-25T16:24:47.795Z,21.39
2018-08-25T16:27:16.301Z,21.16
2018-08-25T16:29:44.620Z,20.84
2018-08-25T16:32:13.134Z,20.86
2018-08-25T16:34:42.870Z,20.87
2018-08-25T16:37:11.678Z,20.84
2018-08-25T16:39:40.193Z,20.78
2018-08-25T16:42:09.075Z,20.62
2018-08-25T16:44:37.213Z,20.54
2018-08-25T16:47:05.712Z,20.31
2018-08-25T16:49:34.510Z,20.17
2018-08-25T16:52:03.281Z,20.17
2018-08-25T16:54:31.849Z,20.16
2018-08-25T16:57:00.371Z,20.01
2018-08-25T16:59:29.011Z,19.91
2018-08-25T17:01:57.472Z,19.84
2018-08-25T17:04:26.483Z,19.79
2018-08-25T17:06:55.073Z,19.69
2018-08-25T17:09:23.712Z,19.50
2018-08-25T17:11:52.332Z,19.52
2018-08-25T17:14:21.005Z,19.53
2018-08-25T17:16:49.805Z,19.43
2018-08-25T17:19:18.693Z,19.34
2018-08-25T17:21:47.380Z,19.25
2018-08-25T17:24:16.011Z,19.26
2018-08-25T17:26:44.552Z,19.22
2018-08-25T17:29:13.418Z,19.22
2018-08-25T17:31:42.643Z,19.21
2018-08-25T17:34:11.199Z,19.04
2018-08-25T17:36:39.681Z,18.86
2018-08-25T17:39:10.264Z,18.81
2018-08-25T17:41:38.852Z,18.90
2018-08-25T17:44:07.335Z,18.75
2018-08-25T17:46:35.879Z,18.61
2018-08-25T17:49:04.367Z,18.68
2018-08-25T17:51:32.868Z,18.70
2018-08-25T17:54:01.501Z,18.68
2018-08-25T17:56:30.107Z,18.76
2018-08-25T17:58:58.795Z,18.75
2018-08-25T18:01:27.404Z,18.86
2018-08-25T18:03:56.000Z,18.87
2018-08-25T18:06:24.503Z,18.89
2018-08-25T18:08:52.947Z,18.87
2018-08-25T18:11:23.180Z,18.91
2018-08-25T18:13:51.929Z,18.73
2018-08-25T18:16:20.354Z,18.71
2018-08-25T18:18:49.291Z,18.54
2018-08-25T18:21:17.910Z,18.51
2018-08-25T18:23:46.420Z,18.36
2018-08-25T18:26:14.994Z,18.09
2018-08-25T18:28:43.675Z,17.94
2018-08-25T18:31:12.296Z,17.82
2018-08-25T18:33:40.657Z,17.72
2018-08-25T18:36:09.044Z,17.63
2018-08-25T18:38:37.539Z,17.66
2018-08-25T18:41:06.129Z,17.63
2018-08-25T18:43:34.704Z,17.55
2018-08-25T18:46:06.330Z,17.54
2018-08-25T18:48:34.890Z,17.42
2018-08-25T18:51:03.408Z,17.42
2018-08-25T18:53:31.943Z,17.41
2018-08-25T18:56:00.527Z,17.26
2018-08-25T18:58:29.053Z,17.16
2018-08-25T19:00:57.683Z,17.18
2018-08-25T19:03:26.678Z,17.14
2018-08-25T19:05:55.230Z,17.15
2018-08-25T19:08:23.893Z,17.06
2018-08-25T19:10:52.681Z,17.04
2018-08-25T19:13:21.107Z,17.02
2018-08-25T19:15:49.603Z,16.97
2018-08-25T19:18:18.515Z,16.91
2018-08-25T19:20:46.974Z,16.84
2018-08-25T19:23:15.915Z,16.89
2018-08-25T19:25:44.499Z,16.87
2018-08-25T19:28:13.147Z,16.83
2018-08-25T19:30:41.581Z,16.88
2018-08-25T19:33:10.031Z,16.85
2018-08-25T19:35:38.682Z,16.88
2018-08-25T19:38:07.467Z,16.84
2018-08-25T19:40:36.570Z,16.78
2018-08-25T19:43:05.936Z,16.83
2018-08-25T19:45:34.487Z,16.75
2018-08-25T19:48:03.153Z,16.73
2018-08-25T19:50:32.196Z,16.72
2018-08-25T19:53:01.044Z,16.75
2018-08-25T19:55:30.340Z,16.84
2018-08-25T19:57:58.886Z,16.93
2018-08-25T20:00:27.872Z,16.94
2018-08-25T20:02:56.440Z,16.95
2018-08-25T20:05:25.175Z,16.95
2018-08-25T20:07:53.812Z,16.98
2018-08-25T20:10:22.521Z,16.98
2018-08-25T20:12:51.077Z,17.00
2018-08-25T20:15:19.516Z,16.93
2018-08-25T20:17:48.296Z,16.90
2018-08-25T20:20:16.761Z,16.93
2018-08-25T20:22:45.635Z,16.89
2018-08-25T20:25:14.188Z,16.87
2018-08-25T20:27:42.835Z,16.84
2018-08-25T20:30:11.520Z,16.81
2018-08-25T20:32:40.108Z,16.77
2018-08-25T20:35:08.795Z,16.71
2018-08-25T20:37:37.237Z,16.70
2018-08-25T20:40:05.846Z,16.62
2018-08-25T20:42:34.557Z,16.61
2018-08-25T20:45:03.239Z,16.52
2018-08-25T20:47:31.698Z,16.48
2018-08-25T20:50:00.292Z,16.48
2018-08-25T20:52:29.090Z,16.45
2018-08-25T20:54:57.809Z,16.45
2018-08-25T20:57:26.451Z,16.39
2018-08-25T20:59:54.721Z,16.36
2018-08-25T21:02:23.304Z,16.33
2018-08-25T21:04:51.908Z,16.28
2018-08-25T21:07:20.424Z,16.32
2018-08-25T21:09:48.950Z,16.29
2018-08-25T21:12:17.281Z,16.16
2018-08-25T21:14:45.756Z,16.20
2018-08-25T21:17:14.206Z,16.19
2018-08-25T21:19:42.466Z,16.14
2018-08-25T21:22:11.024Z,16.09
2018-08-25T21:24:39.473Z,16.09
2018-08-25T21:27:07.815Z,16.00
2018-08-25T21:29:36.234Z,16.00
2018-08-25T21:32:04.602Z,15.97
2018-08-25T21:34:33.218Z,15.97
2018-08-25T21:37:01.631Z,15.92
2018-08-25T21:39:29.991Z,15.91
2018-08-25T21:41:58.391Z,15.89
2018-08-25T21:44:26.773Z,15.88
2018-08-25T21:46:55.412Z,15.93
2018-08-25T21:49:23.741Z,15.87
2018-08-25T21:51:52.088Z,15.89
2018-08-25T21:54:20.427Z,15.80
2018-08-25T21:56:48.658Z,15.73
2018-08-25T21:59:17.057Z,15.66
2018-08-25T22:08:37.927Z,15.69
2018-08-25T22:11:06.381Z,15.70
2018-08-25T22:13:34.554Z,15.65
2018-08-25T22:16:02.745Z,15.64
2018-08-25T22:18:30.803Z,15.59
2018-08-25T22:20:58.991Z,15.56
2018-08-25T22:23:27.045Z,15.57
2018-08-25T22:25:55.315Z,15.48
2018-08-25T22:28:23.426Z,15.51
2018-08-25T22:30:51.515Z,15.53
2018-08-25T22:33:19.557Z,15.48
2018-08-25T22:35:47.824Z,15.56
2018-08-25T22:38:15.883Z,15.51
2018-08-25T22:40:43.992Z,15.48
2018-08-25T22:43:12.215Z,15.39
2018-08-25T22:45:40.342Z,15.46
2018-08-25T22:48:08.344Z,15.38
2018-08-25T22:50:36.519Z,15.40
2018-08-25T22:53:04.639Z,15.39
2018-08-25T22:55:32.803Z,15.39
2018-08-25T22:58:00.851Z,15.31
2018-08-25T23:00:28.965Z,15.30
2018-08-25T23:02:57.143Z,15.26
2018-08-25T23:05:25.219Z,15.22
2018-08-25T23:07:53.243Z,15.16
2018-08-25T23:10:21.428Z,15.20
2018-08-25T23:12:49.618Z,15.16
2018-08-25T23:15:17.716Z,15.17
2018-08-25T23:17:45.710Z,15.11
2018-08-25T23:20:13.940Z,15.07
2018-08-25T23:22:42.127Z,15.08
2018-08-25T23:25:10.126Z,15.15
2018-08-25T23:27:38.211Z,15.12
2018-08-25T23:30:06.354Z,15.04
2018-08-25T23:32:34.421Z,15.02
2018-08-25T23:35:02.484Z,14.98
2018-08-25T23:37:30.569Z,14.96
2018-08-25T23:39:58.719Z,14.90
2018-08-25T23:42:26.930Z,14.80
2018-08-25T23:44:55.018Z,14.81
2018-08-25T23:47:23.096Z,14.80
2018-08-25T23:49:51.147Z,14.82
2018-08-25T23:52:19.131Z,14.86
2018-08-25T23:54:47.182Z,14.79
2018-08-25T23:57:15.206Z,14.83
2018-08-25T23:59:43.361Z,14.77
